createdAt,value
2023-12-16T00:02:08.163Z,7.43
2023-12-16T00:07:12.509Z,11.30
2023-12-16T00:12:17.067Z,14.20
2023-12-16T00:17:20.532Z,9.47
2023-12-16T00:22:23.907Z,10.57
2023-12-16T00:27:28.458Z,9.33
2023-12-16T00:32:31.372Z,8.60
2023-12-16T00:37:34.300Z,11.63
2023-12-16T00:42:38.744Z,8.00
2023-12-16T00:47:42.013Z,10.97
2023-12-16T00:52:45.216Z,11.63
2023-12-16T00:57:49.642Z,9.37
2023-12-16T01:02:52.645Z,11.30
2023-12-16T01:07:55.546Z,9.50
2023-12-16T01:12:59.916Z,9.27
2023-12-16T01:18:03.005Z,13.60
2023-12-16T01:23:05.944Z,9.13
2023-12-16T01:28:10.268Z,7.13
2023-12-16T01:33:14.272Z,10.90
2023-12-16T01:38:17.319Z,8.47
2023-12-16T01:43:21.772Z,10.80
2023-12-16T01:48:25.103Z,9.07
2023-12-16T01:53:29.457Z,8.17
2023-12-16T01:58:33.727Z,9.20
2023-12-16T02:03:38.622Z,8.10
2023-12-16T02:08:41.860Z,8.00
2023-12-16T02:13:46.213Z,12.17
2023-12-16T02:18:51.083Z,9.17
2023-12-16T02:23:55.625Z,10.30
2023-12-16T02:28:58.569Z,7.57
2023-12-16T02:34:01.573Z,9.20
2023-12-16T02:39:05.969Z,7.57
2023-12-16T02:44:09.564Z,8.27
2023-12-16T02:49:12.574Z,8.90
2023-12-16T02:54:16.984Z,7.37
2023-12-16T02:59:19.899Z,6.97
2023-12-16T03:04:22.958Z,7.33
2023-12-16T03:09:27.286Z,6.57
2023-12-16T03:14:30.446Z,6.83
2023-12-16T03:19:33.485Z,7.00
2023-12-16T03:24:37.898Z,10.53
2023-12-16T03:29:40.805Z,8.73
2023-12-16T03:34:43.791Z,9.10
2023-12-16T03:39:48.212Z,7.30
2023-12-16T03:44:51.161Z,7.67
2023-12-16T03:49:54.167Z,6.97
2023-12-16T03:54:58.516Z,9.17
2023-12-16T04:00:01.479Z,9.37
2023-12-16T04:05:04.855Z,8.03
2023-12-16T04:10:11.361Z,6.80
2023-12-16T04:15:14.319Z,6.23
2023-12-16T04:20:17.531Z,8.10
2023-12-16T04:25:21.883Z,8.50
2023-12-16T04:30:24.887Z,9.03
2023-12-16T04:35:28.098Z,13.07
2023-12-16T04:40:32.697Z,6.90
2023-12-16T04:45:36.970Z,8.20
2023-12-16T04:50:39.947Z,6.70
2023-12-16T04:55:44.435Z,7.43
2023-12-16T05:00:47.460Z,5.70
2023-12-16T05:05:50.432Z,7.03
2023-12-16T05:10:54.761Z,6.60
2023-12-16T05:15:57.634Z,6.57
2023-12-16T05:21:00.568Z,7.13
2023-12-16T05:26:05.035Z,6.80
2023-12-16T05:31:08.177Z,9.67
2023-12-16T05:36:11.814Z,9.00
2023-12-16T05:41:16.411Z,6.73
2023-12-16T05:46:19.385Z,6.30
2023-12-16T05:51:22.303Z,5.47
2023-12-16T05:56:26.598Z,5.83
2023-12-16T06:01:29.595Z,6.77
2023-12-16T06:06:32.594Z,7.10
2023-12-16T06:11:36.972Z,5.80
2023-12-16T06:16:40.001Z,5.80
2023-12-16T06:21:42.948Z,5.60
2023-12-16T06:26:48.490Z,6.10
2023-12-16T06:31:51.503Z,7.83
2023-12-16T06:36:54.395Z,7.83
2023-12-16T06:41:58.690Z,6.33
2023-12-16T06:47:01.611Z,8.10
2023-12-16T06:52:04.853Z,10.07
2023-12-16T06:57:09.193Z,10.53
2023-12-16T07:02:12.080Z,9.67
2023-12-16T07:07:15.033Z,7.73
2023-12-16T07:12:19.876Z,8.50
2023-12-16T07:17:22.790Z,6.97
2023-12-16T07:22:25.739Z,14.80
2023-12-16T07:27:30.106Z,9.17
2023-12-16T07:32:33.163Z,9.10
2023-12-16T07:37:36.669Z,7.43
2023-12-16T07:42:42.791Z,8.77
2023-12-16T07:47:45.966Z,8.27
2023-12-16T07:52:49.398Z,9.40
2023-12-16T07:57:54.150Z,10.27
2023-12-16T08:02:57.157Z,12.67
2023-12-16T08:08:00.207Z,8.07
2023-12-16T08:13:04.592Z,8.20
2023-12-16T08:18:09.129Z,11.07
2023-12-16T08:23:12.369Z,7.70
2023-12-16T08:28:17.785Z,8.30
2023-12-16T08:33:20.819Z,7.13
2023-12-16T08:38:23.836Z,9.10
2023-12-16T08:43:29.653Z,8.37
2023-12-16T08:48:33.086Z,8.43
2023-12-16T08:53:35.962Z,10.17
2023-12-16T08:58:40.455Z,9.20
2023-12-16T09:03:44.925Z,7.77
2023-12-16T09:08:47.942Z,11.07
2023-12-16T09:13:52.172Z,13.20
2023-12-16T09:18:55.180Z,9.40
2023-12-16T09:23:58.124Z,13.10
2023-12-16T09:29:03.090Z,11.17
2023-12-16T09:34:06.235Z,10.47
2023-12-16T09:39:11.290Z,10.53
2023-12-16T09:44:20.123Z,11.37
2023-12-16T09:49:25.596Z,11.10
2023-12-16T09:54:28.741Z,12.60
2023-12-16T09:59:34.128Z,13.67
2023-12-16T10:04:38.052Z,10.70
2023-12-16T10:09:41.022Z,11.17
2023-12-16T10:14:49.084Z,9.50
2023-12-16T10:19:52.018Z,13.43
2023-12-16T10:24:55.495Z,9.57
2023-12-16T10:30:07.190Z,12.20
2023-12-16T10:35:12.972Z,12.97
2023-12-16T10:40:17.155Z,9.13
2023-12-16T10:45:21.924Z,11.37
2023-12-16T10:50:27.020Z,9.40
2023-12-16T10:55:33.224Z,11.27
2023-12-16T11:00:41.533Z,10.20
2023-12-16T11:05:50.073Z,10.17
2023-12-16T11:10:54.823Z,11.03
2023-12-16T11:16:05.108Z,10.07
2023-12-16T11:21:14.204Z,11.23
2023-12-16T11:26:18.512Z,10.53
2023-12-16T11:31:23.166Z,13.30
2023-12-16T11:37:03.941Z,10.17
2023-12-16T11:42:08.005Z,5.93
2023-12-16T11:47:20.004Z,6.13
2023-12-16T11:52:23.947Z,15.50
2023-12-16T11:57:27.829Z,12.33
2023-12-16T12:02:32.107Z,7.60
2023-12-16T12:07:35.453Z,7.23
2023-12-16T12:12:38.726Z,5.93
2023-12-16T12:17:43.188Z,2.23
2023-12-16T12:22:46.440Z,2.23
2023-12-16T12:27:50.129Z,5.20
2023-12-16T12:32:54.621Z,3.40
2023-12-16T12:37:58.385Z,4.17
2023-12-16T12:43:01.724Z,3.10
2023-12-16T12:48:14.033Z,4.30
2023-12-16T12:53:23.150Z,5.03
2023-12-16T12:58:31.179Z,4.70
2023-12-16T13:03:36.613Z,5.30
2023-12-16T13:08:39.686Z,4.67
2023-12-16T13:13:42.661Z,6.50
2023-12-16T13:18:47.511Z,5.30
2023-12-16T18:48:38.391Z,14.00
2023-12-16T18:53:41.626Z,20.93
2023-12-16T18:58:44.636Z,15.43
2023-12-16T19:03:49.676Z,13.87
2023-12-16T19:08:52.818Z,16.20
2023-12-16T19:13:55.898Z,16.87
2023-12-16T19:19:00.657Z,18.87
2023-12-16T19:24:03.751Z,19.10
2023-12-16T19:29:06.873Z,16.60
2023-12-16T19:34:11.298Z,16.77
2023-12-16T19:39:19.856Z,16.57
2023-12-16T19:44:24.101Z,16.93
2023-12-16T19:49:28.850Z,17.40
2023-12-16T19:54:32.299Z,18.87
2023-12-16T19:59:38.022Z,14.97
2023-12-16T20:04:44.104Z,17.20
2023-12-16T20:09:47.396Z,14.90
2023-12-16T20:14:50.510Z,17.77
2023-12-16T20:19:55.014Z,14.63
2023-12-16T20:24:58.119Z,28.60
2023-12-16T20:30:02.198Z,19.67
2023-12-16T20:35:08.288Z,15.40
2023-12-16T20:40:28.883Z,17.30
2023-12-16T20:45:32.621Z,16.40
2023-12-16T20:50:37.275Z,12.63
2023-12-16T20:55:40.541Z,13.40
2023-12-16T21:00:44.139Z,14.17
2023-12-16T21:05:48.623Z,14.73
2023-12-16T21:10:51.691Z,16.93
2023-12-16T21:15:55.388Z,15.47
2023-12-16T21:20:59.670Z,19.53
2023-12-16T21:26:02.637Z,16.40
2023-12-16T21:31:06.992Z,12.57
2023-12-16T21:36:11.757Z,12.83
2023-12-16T21:41:14.714Z,12.60
2023-12-16T21:46:17.684Z,14.70
2023-12-16T21:51:22.716Z,14.73
2023-12-16T21:56:27.146Z,17.10
2023-12-16T22:01:30.613Z,15.47
2023-12-16T22:06:35.037Z,13.97
2023-12-16T22:11:38.073Z,15.37
2023-12-16T22:16:41.045Z,10.33
2023-12-16T22:21:45.404Z,15.60
2023-12-16T22:26:50.546Z,11.43
2023-12-16T22:31:54.618Z,12.03
2023-12-16T22:36:58.993Z,9.67
2023-12-16T22:42:01.933Z,16.60
2023-12-16T22:47:05.375Z,12.60
2023-12-16T22:52:09.691Z,12.77
2023-12-16T22:57:12.794Z,14.77
2023-12-16T23:02:15.940Z,11.27
2023-12-16T23:07:20.667Z,10.30
2023-12-16T23:12:23.607Z,13.40
2023-12-16T23:17:26.687Z,9.60
2023-12-16T23:22:31.091Z,9.37
2023-12-16T23:27:34.033Z,9.57
2023-12-16T23:32:37.001Z,7.20
2023-12-16T23:37:41.537Z,10.50
2023-12-16T23:42:44.687Z,8.97
2023-12-16T23:47:47.798Z,7.00
2023-12-16T23:52:52.206Z,7.73
2023-12-16T23:57:55.147Z,9.33
